MSSS/SAL METAR and TAF weather

Enter ICAO airport designator
Station Type Date Time Source
MSSS METAR 2020/09/23 18:50 UTC NOAA

MSSS 231850Z 17010KT 9999 SCT036 30/21 Q1014 A2995


Station Type Date Time Source
MSSS Decoded METAR 2020/09/23 18:50 UTC NOAA

San Salvador / Ilopango, El Salvador (MSSS) 13-42N 089-07W 621M
Sep 23, 2020 - 02:50 PM EDT / 2020.09.23 1850 UTC
Wind: from the S (170 degrees) at 12 MPH (10 KT):0
Visibility: greater than 7 mile(s):0
Sky conditions: partly cloudy
Temperature: 86 F (30 C)
Dew Point: 69 F (21 C)
Relative Humidity: 58%
Pressure (altimeter): 29.95 in. Hg (1014 hPa)
ob: MSSS 231850Z 17010KT 9999 SCT036 30/21 Q1014 A2995
cycle: 19

Station Type Date Time Source
MSSS TAF 2020/09/23 18:43 UTC NOAA

TAF MSSS 231525Z 2318/2418 18009KT 9999 SCT030 FEW037CB TX30/2320Z TN21/2412Z
TEMPO 2321/2324 8000 TSRA
FM240000 36004KT 9999 BKN027 FEW033CB
TEMPO 2402/2405 34010KT 5000 TSRA SCT023 BKN033CB
BECMG 2405/2408 34004KT 7000 RA BKN017 FEW0400CB
FM240800 9999 SCT013

Example: see airport list